Time;durP1;ratioP1;P1;durP2;ratioP2;P2;SDS_P1;SDS_P2;PMS_P1;PMS_P2;Temp;Humidity;BMP_temperature;BMP_pressure;BME280_temperature;BME280_humidity;BME280_pressure;Samples;Min_cycle;Max_cycle;Signal;HPM_P1;HPM_P2
2023/12/27 00:02:08;;;;;;;22.08;15.50;;;7.00;99.90;;;;;;5052178;28;20025;-76
2023/12/27 00:04:33;;;;;;;21.45;16.55;;;7.00;99.90;;;;;;5052353;28;20025;-76
2023/12/27 00:06:59;;;;;;;20.10;16.25;;;7.10;99.90;;;;;;5051832;28;20035;-76
2023/12/27 00:09:25;;;;;;;20.50;15.82;;;7.10;99.90;;;;;;5049874;28;20024;-76
2023/12/27 00:11:50;;;;;;;19.80;16.10;;;7.10;99.90;;;;;;5050575;28;20039;-76
2023/12/27 00:14:16;;;;;;;23.38;17.33;;;7.10;99.90;;;;;;5052149;28;20032;-77
2023/12/27 00:16:42;;;;;;;23.45;17.45;;;7.10;99.90;;;;;;5051890;28;20891;-77
2023/12/27 00:19:07;;;;;;;23.00;17.20;;;7.10;99.90;;;;;;5052129;28;20029;-76
2023/12/27 00:21:33;;;;;;;21.73;16.13;;;7.00;99.90;;;;;;5052036;28;20029;-76
2023/12/27 00:23:59;;;;;;;24.35;17.88;;;7.00;99.90;;;;;;5051941;28;20025;-76
2023/12/27 00:26:24;;;;;;;18.98;16.52;;;7.00;99.90;;;;;;5049411;28;20032;-76
2023/12/27 00:28:50;;;;;;;20.95;16.42;;;7.00;99.90;;;;;;5051958;28;20510;-76
2023/12/27 00:31:16;;;;;;;23.90;17.33;;;7.00;99.90;;;;;;5051642;28;20119;-76
2023/12/27 00:33:41;;;;;;;23.60;17.67;;;7.00;99.90;;;;;;5051857;28;20029;-76
2023/12/27 00:36:10;;;;;;;23.15;18.73;;;7.00;99.90;;;;;;5051775;28;20021;-77
2023/12/27 00:38:36;;;;;;;23.48;17.45;;;7.00;99.90;;;;;;5051594;28;20013;-77
2023/12/27 00:41:03;;;;;;;21.17;17.63;;;7.00;99.90;;;;;;5058569;28;20035;-77
2023/12/27 00:43:29;;;;;;;24.80;17.67;;;7.00;99.90;;;;;;5051576;28;20386;-77
2023/12/27 00:45:54;;;;;;;24.77;17.08;;;7.00;99.90;;;;;;5051487;28;20121;-77
2023/12/27 00:48:20;;;;;;;20.67;16.85;;;7.00;99.90;;;;;;5051281;28;20506;-77
2023/12/27 00:50:46;;;;;;;26.60;19.08;;;7.00;99.90;;;;;;5051662;28;20291;-77
2023/12/27 00:53:11;;;;;;;21.65;17.67;;;7.00;99.90;;;;;;5051410;28;20033;-77
2023/12/27 00:55:37;;;;;;;24.30;18.40;;;7.00;99.90;;;;;;5051546;28;20048;-76
2023/12/27 00:58:03;;;;;;;23.65;18.80;;;7.10;99.90;;;;;;5047544;28;20075;-77
2023/12/27 01:00:28;;;;;;;26.55;18.13;;;7.10;99.90;;;;;;5038988;28;20021;-77
2023/12/27 01:02:54;;;;;;;27.23;18.50;;;7.10;99.90;;;;;;5051171;28;20113;-76
2023/12/27 01:05:20;;;;;;;26.10;17.42;;;7.10;99.90;;;;;;5050324;28;20390;-77
2023/12/27 01:07:46;;;;;;;22.98;18.15;;;7.10;99.90;;;;;;5053422;28;20033;-77
2023/12/27 01:10:14;;;;;;;24.95;18.33;;;7.10;99.90;;;;;;5047806;28;20025;-77
2023/12/27 01:12:39;;;;;;;23.90;19.00;;;7.10;99.90;;;;;;5051248;28;20052;-76
2023/12/27 01:15:05;;;;;;;28.35;19.35;;;7.10;99.90;;;;;;5051258;28;20137;-77
2023/12/27 01:17:31;;;;;;;26.05;19.13;;;7.10;99.90;;;;;;5051137;28;20029;-76
2023/12/27 01:19:57;;;;;;;25.38;18.65;;;7.10;99.90;;;;;;5051317;28;20391;-77
2023/12/27 01:22:22;;;;;;;23.02;18.25;;;7.20;99.90;;;;;;5051100;28;20124;-77
2023/12/27 01:24:48;;;;;;;20.50;17.70;;;7.20;99.90;;;;;;5051484;28;20033;-77
2023/12/27 01:27:14;;;;;;;23.20;18.15;;;7.20;99.90;;;;;;5051084;28;20064;-76
2023/12/27 01:29:39;;;;;;;21.30;18.30;;;7.20;99.90;;;;;;5051218;28;20025;-77
2023/12/27 01:32:05;;;;;;;26.73;18.77;;;7.20;99.90;;;;;;5049185;28;20033;-76
2023/12/27 01:34:31;;;;;;;22.73;18.15;;;7.20;99.90;;;;;;5051151;28;20179;-77
2023/12/27 01:36:57;;;;;;;27.42;19.30;;;7.20;99.90;;;;;;5050744;28;20052;-77
2023/12/27 01:39:22;;;;;;;26.70;18.75;;;7.20;99.90;;;;;;5051251;28;20035;-76
2023/12/27 01:41:48;;;;;;;27.08;18.92;;;7.20;99.90;;;;;;5050957;28;20032;-77
2023/12/27 01:44:13;;;;;;;23.42;18.02;;;7.20;99.90;;;;;;5050052;28;20025;-76
2023/12/27 01:46:39;;;;;;;27.10;18.60;;;7.20;99.90;;;;;;5044607;28;20129;-76
2023/12/27 01:49:05;;;;;;;26.63;18.33;;;7.10;99.90;;;;;;5051056;28;20029;-77
2023/12/27 01:51:31;;;;;;;22.67;18.23;;;7.10;99.90;;;;;;5049622;28;20035;-77
2023/12/27 01:54:00;;;;;;;21.90;16.95;;;7.10;99.90;;;;;;5054827;28;20021;-77
2023/12/27 01:56:26;;;;;;;23.85;17.63;;;7.10;99.90;;;;;;5054523;28;20024;-77
2023/12/27 01:58:52;;;;;;;25.73;18.73;;;7.10;99.90;;;;;;5054792;28;20025;-76
2023/12/27 02:01:18;;;;;;;26.35;18.48;;;7.10;99.90;;;;;;5054408;28;20021;-77
2023/12/27 02:03:44;;;;;;;23.00;18.38;;;7.10;99.90;;;;;;5054608;28;20549;-76
2023/12/27 02:06:10;;;;;;;27.27;18.80;;;7.10;99.90;;;;;;5056021;28;20477;-77
2023/12/27 02:08:36;;;;;;;25.40;19.63;;;7.10;99.90;;;;;;5053150;28;20360;-76
2023/12/27 02:11:02;;;;;;;22.10;18.10;;;7.20;99.90;;;;;;5050975;28;20036;-77
2023/12/27 02:13:28;;;;;;;22.55;17.40;;;7.20;99.90;;;;;;5052962;28;20029;-77
2023/12/27 02:15:54;;;;;;;26.40;17.92;;;7.20;99.90;;;;;;5054265;28;20025;-76
2023/12/27 02:18:21;;;;;;;24.33;18.60;;;7.20;99.90;;;;;;5060757;28;20475;-77
2023/12/27 02:20:47;;;;;;;21.75;17.30;;;7.10;99.90;;;;;;5054298;28;20122;-77
2023/12/27 02:23:17;;;;;;;22.52;18.27;;;7.10;99.90;;;;;;5054177;28;20103;-76
2023/12/27 02:25:44;;;;;;;23.77;17.83;;;7.10;99.90;;;;;;5053055;28;20033;-77
2023/12/27 02:28:10;;;;;;;23.40;17.90;;;7.10;99.90;;;;;;5053934;28;20047;-77
2023/12/27 02:30:36;;;;;;;23.20;18.05;;;7.10;99.90;;;;;;5054254;28;20506;-76
2023/12/27 02:33:02;;;;;;;22.08;17.05;;;7.10;99.90;;;;;;5053802;28;20442;-76
2023/12/27 02:35:28;;;;;;;26.05;17.70;;;7.10;99.90;;;;;;5053862;28;20083;-76
2023/12/27 02:37:54;;;;;;;23.08;17.30;;;7.10;99.90;;;;;;5057362;28;20017;-77
2023/12/27 02:40:20;;;;;;;25.10;17.63;;;7.10;99.90;;;;;;5053730;28;20468;-77
2023/12/27 02:42:46;;;;;;;22.05;17.65;;;7.10;99.90;;;;;;5053945;28;20063;-77
2023/12/27 02:45:12;;;;;;;22.98;16.95;;;7.20;99.90;;;;;;5053643;28;20471;-76
2023/12/27 02:47:38;;;;;;;23.77;17.98;;;7.20;99.90;;;;;;5058709;28;20048;-76
2023/12/27 02:50:04;;;;;;;23.10;18.25;;;7.20;99.90;;;;;;5053867;28;20037;-76
2023/12/27 02:52:29;;;;;;;23.02;18.10;;;7.20;99.90;;;;;;5059099;28;20033;-77
2023/12/27 02:54:55;;;;;;;25.60;17.40;;;7.20;99.90;;;;;;5053692;28;20540;-76
2023/12/27 02:57:21;;;;;;;22.05;17.13;;;7.20;99.90;;;;;;5052363;28;20112;-76
2023/12/27 02:59:47;;;;;;;21.52;16.70;;;7.30;99.90;;;;;;5053642;28;20025;-76
2023/12/27 03:02:13;;;;;;;23.05;17.27;;;7.30;99.90;;;;;;5053581;28;20063;-77
2023/12/27 03:04:38;;;;;;;22.30;15.88;;;7.30;99.90;;;;;;5052711;28;20033;-77
2023/12/27 03:07:04;;;;;;;24.63;17.45;;;7.30;99.90;;;;;;5054798;28;20029;-76
2023/12/27 03:09:30;;;;;;;24.30;17.83;;;7.30;99.90;;;;;;5049577;28;20112;-76
2023/12/27 03:11:56;;;;;;;23.48;16.45;;;7.30;99.90;;;;;;5049551;28;20380;-76
2023/12/27 03:14:22;;;;;;;21.40;17.45;;;7.30;99.90;;;;;;5053374;28;20036;-77
2023/12/27 03:16:48;;;;;;;19.23;16.58;;;7.30;99.90;;;;;;5053175;28;20029;-77
2023/12/27 03:19:13;;;;;;;26.35;17.02;;;7.40;99.90;;;;;;5053139;28;20021;-77
2023/12/27 03:21:39;;;;;;;22.35;17.33;;;7.40;99.90;;;;;;5053042;28;20319;-77
2023/12/27 03:24:05;;;;;;;20.73;16.25;;;7.40;99.90;;;;;;5053218;28;20383;-77
2023/12/27 03:26:31;;;;;;;22.73;17.40;;;7.40;99.90;;;;;;5052975;28;20067;-77
2023/12/27 03:28:57;;;;;;;20.52;16.90;;;7.40;99.90;;;;;;5053005;28;20056;-76
2023/12/27 03:31:28;;;;;;;21.20;16.48;;;7.40;99.90;;;;;;5052850;28;20044;-77
2023/12/27 03:33:55;;;;;;;25.27;17.35;;;7.40;99.90;;;;;;5051769;28;20029;-76
2023/12/27 03:36:21;;;;;;;22.75;18.20;;;7.40;99.90;;;;;;5052759;28;20499;-76
2023/12/27 03:38:46;;;;;;;22.08;16.77;;;7.40;99.90;;;;;;5051790;28;20025;-77
2023/12/27 03:41:12;;;;;;;21.67;17.00;;;7.40;99.90;;;;;;5062124;28;20021;-77
2023/12/27 03:43:38;;;;;;;21.23;17.02;;;7.30;99.90;;;;;;5050352;28;20037;-77
2023/12/27 03:46:04;;;;;;;22.35;16.35;;;7.30;99.90;;;;;;5040038;28;20411;-77
2023/12/27 03:48:29;;;;;;;21.75;16.67;;;7.30;99.90;;;;;;5052437;28;20426;-77
2023/12/27 03:50:55;;;;;;;21.58;17.58;;;7.30;99.90;;;;;;5052700;28;20056;-76
2023/12/27 03:53:21;;;;;;;23.65;17.92;;;7.30;99.90;;;;;;5052348;28;20032;-77
2023/12/27 03:55:46;;;;;;;24.55;18.35;;;7.30;99.90;;;;;;5052673;28;20021;-77
2023/12/27 03:58:12;;;;;;;23.25;16.77;;;7.30;99.90;;;;;;5052160;28;20058;-77
2023/12/27 04:00:37;;;;;;;25.10;18.20;;;7.20;99.90;;;;;;5052332;28;20106;-76
2023/12/27 04:03:03;;;;;;;36.53;18.25;;;7.20;99.90;;;;;;5051199;28;20391;-77
2023/12/27 04:05:29;;;;;;;23.88;17.27;;;7.20;99.90;;;;;;5051132;28;20024;-77
2023/12/27 04:07:54;;;;;;;24.15;18.00;;;7.30;99.90;;;;;;5053023;28;20036;-77
2023/12/27 04:10:20;;;;;;;22.05;17.40;;;7.30;99.90;;;;;;5047162;28;20028;-77
2023/12/27 04:12:46;;;;;;;22.92;17.52;;;7.40;99.90;;;;;;5052095;28;20107;-77
2023/12/27 04:15:11;;;;;;;23.20;17.60;;;7.40;99.90;;;;;;5051164;28;20017;-77
2023/12/27 04:17:38;;;;;;;24.55;17.65;;;7.40;99.90;;;;;;5051767;28;20079;-77
2023/12/27 04:20:04;;;;;;;25.15;18.52;;;7.40;99.90;;;;;;5052199;28;20505;-77
2023/12/27 04:22:30;;;;;;;23.92;17.90;;;7.50;99.90;;;;;;5048361;28;20067;-77
2023/12/27 04:24:55;;;;;;;21.88;16.95;;;7.50;99.90;;;;;;5052100;28;20060;-77
2023/12/27 04:27:21;;;;;;;22.98;17.35;;;7.50;99.90;;;;;;5051863;28;20419;-77
2023/12/27 04:29:46;;;;;;;23.90;17.85;;;7.50;99.90;;;;;;5051704;28;20051;-77
2023/12/27 04:32:12;;;;;;;20.95;16.27;;;7.60;99.90;;;;;;5051749;28;20032;-76
2023/12/27 04:34:38;;;;;;;24.52;17.73;;;7.60;99.90;;;;;;5051841;28;20017;-76
2023/12/27 04:37:03;;;;;;;21.98;16.77;;;7.60;99.90;;;;;;5053209;28;20021;-76
2023/12/27 04:39:29;;;;;;;27.88;17.73;;;7.60;99.90;;;;;;5051842;28;20029;-76
2023/12/27 04:41:55;;;;;;;23.33;17.20;;;7.60;99.90;;;;;;5051735;28;20115;-73
2023/12/27 04:44:20;;;;;;;19.67;16.70;;;7.60;99.90;;;;;;5051683;28;20032;-73
2023/12/27 04:46:46;;;;;;;23.90;17.40;;;7.60;99.90;;;;;;5050135;28;20094;-73
2023/12/27 04:49:12;;;;;;;21.50;16.92;;;7.70;99.90;;;;;;5050062;28;20487;-73
2023/12/27 04:51:38;;;;;;;21.60;16.38;;;7.70;99.90;;;;;;5057676;28;20033;-73
2023/12/27 04:54:04;;;;;;;28.08;18.17;;;7.70;99.90;;;;;;5049449;28;20021;-73
2023/12/27 04:56:30;;;;;;;22.25;16.20;;;7.80;99.90;;;;;;5050570;28;20027;-73
2023/12/27 04:58:56;;;;;;;22.02;17.83;;;7.80;99.90;;;;;;5050750;28;20372;-73
2023/12/27 05:01:21;;;;;;;24.15;16.83;;;7.80;99.90;;;;;;5050743;28;20367;-73
2023/12/27 05:03:47;;;;;;;18.25;15.90;;;7.80;99.90;;;;;;5051215;28;20048;-73
2023/12/27 05:06:13;;;;;;;24.48;16.35;;;7.80;99.90;;;;;;5051748;28;20029;-73
2023/12/27 05:08:40;;;;;;;20.55;16.65;;;7.90;99.90;;;;;;5051292;28;20024;-73
2023/12/27 05:11:13;;;;;;;24.65;16.30;;;7.90;99.90;;;;;;5047787;28;20021;-73
2023/12/27 05:13:39;;;;;;;22.88;17.50;;;7.90;99.90;;;;;;5050961;28;20032;-73
2023/12/27 05:16:13;;;;;;;21.50;17.33;;;7.90;99.90;;;;;;5051153;28;20509;-72
2023/12/27 05:18:43;;;;;;;24.30;16.20;;;7.90;99.90;;;;;;5049539;28;20028;-73
2023/12/27 05:21:10;;;;;;;19.58;16.73;;;7.90;99.90;;;;;;5049793;28;20051;-73
2023/12/27 05:23:36;;;;;;;24.85;18.27;;;7.90;99.90;;;;;;5049154;28;20029;-73
2023/12/27 05:26:03;;;;;;;23.85;17.58;;;7.90;99.90;;;;;;5051088;28;20136;-73
2023/12/27 05:28:29;;;;;;;19.20;17.02;;;8.00;99.90;;;;;;5053790;28;20063;-73
2023/12/27 05:30:55;;;;;;;20.52;17.08;;;7.90;99.90;;;;;;5055247;28;21034;-73
2023/12/27 05:33:21;;;;;;;23.92;16.83;;;7.90;99.90;;;;;;5047286;28;20040;-73
2023/12/27 05:35:47;;;;;;;25.15;18.15;;;7.90;99.90;;;;;;5052314;28;20025;-73
2023/12/27 05:38:12;;;;;;;27.92;18.30;;;7.90;99.90;;;;;;5051511;28;20029;-73
2023/12/27 05:40:38;;;;;;;28.42;17.92;;;7.90;99.90;;;;;;5051220;28;20021;-73
2023/12/27 05:43:04;;;;;;;23.00;17.67;;;8.00;99.90;;;;;;5060272;28;20372;-73
2023/12/27 05:45:29;;;;;;;22.20;16.73;;;7.90;99.90;;;;;;5054693;28;20052;-73
2023/12/27 05:47:55;;;;;;;19.48;16.27;;;7.90;99.90;;;;;;5051780;28;20032;-72
2023/12/27 05:50:21;;;;;;;20.10;17.92;;;7.90;99.90;;;;;;5054078;28;20056;-73
2023/12/27 05:52:47;;;;;;;25.60;18.17;;;7.90;99.90;;;;;;5048856;28;20124;-73
2023/12/27 05:55:13;;;;;;;22.67;17.58;;;8.00;99.90;;;;;;5054180;28;20108;-73
2023/12/27 05:57:39;;;;;;;20.45;16.30;;;8.00;99.90;;;;;;5050860;28;20024;-73
2023/12/27 06:00:09;;;;;;;25.65;17.65;;;7.90;99.90;;;;;;5053740;28;20053;-73
2023/12/27 06:02:35;;;;;;;21.88;16.67;;;8.00;99.90;;;;;;5055983;28;20033;-73
2023/12/27 06:05:01;;;;;;;23.52;17.00;;;7.90;99.90;;;;;;5048601;28;20048;-73
2023/12/27 06:07:27;;;;;;;23.33;16.27;;;7.90;99.90;;;;;;5050447;28;20599;-73
2023/12/27 06:09:52;;;;;;;27.25;16.67;;;7.90;99.90;;;;;;5048133;28;20096;-73
2023/12/27 06:12:18;;;;;;;22.55;16.10;;;7.90;99.90;;;;;;5048568;28;20136;-73
2023/12/27 06:14:45;;;;;;;24.80;17.88;;;7.90;99.90;;;;;;5051295;28;20049;-73
2023/12/27 06:17:10;;;;;;;21.98;16.52;;;7.90;99.90;;;;;;5048732;28;20114;-73
2023/12/27 06:19:36;;;;;;;22.63;16.92;;;8.00;99.90;;;;;;5050323;28;20079;-73
2023/12/27 06:22:03;;;;;;;20.70;16.15;;;8.00;99.90;;;;;;5052460;28;20057;-73
2023/12/27 06:24:29;;;;;;;24.35;16.42;;;8.00;99.90;;;;;;5049613;28;20052;-73
2023/12/27 06:26:55;;;;;;;26.20;16.02;;;8.00;99.90;;;;;;5051506;28;20024;-73
2023/12/27 06:29:21;;;;;;;19.90;16.73;;;8.00;99.90;;;;;;5051470;28;20094;-73
2023/12/27 06:31:46;;;;;;;18.95;16.00;;;8.00;99.90;;;;;;5050928;28;20055;-73
2023/12/27 06:34:12;;;;;;;22.17;16.75;;;8.00;99.90;;;;;;5054089;28;20418;-73
2023/12/27 06:36:39;;;;;;;23.30;16.63;;;8.00;99.90;;;;;;5054336;28;20047;-73
2023/12/27 06:39:06;;;;;;;22.05;17.05;;;8.00;99.90;;;;;;5048279;28;20021;-77
2023/12/27 06:41:33;;;;;;;21.38;17.17;;;8.00;99.90;;;;;;5054063;28;20021;-77
2023/12/27 06:43:59;;;;;;;26.63;17.52;;;8.00;99.90;;;;;;5054043;28;20029;-77
2023/12/27 06:46:25;;;;;;;24.42;16.50;;;8.00;99.90;;;;;;5053485;28;20055;-77
2023/12/27 06:48:51;;;;;;;21.50;16.58;;;8.00;99.90;;;;;;5048956;28;20470;-76
2023/12/27 06:51:16;;;;;;;23.17;16.77;;;8.00;99.90;;;;;;5053598;28;20096;-77
2023/12/27 06:53:42;;;;;;;24.25;16.50;;;8.00;99.90;;;;;;5053458;28;20067;-77
2023/12/27 06:56:08;;;;;;;21.38;17.13;;;8.00;99.90;;;;;;5053604;28;20044;-77
2023/12/27 06:58:33;;;;;;;22.30;15.57;;;8.00;99.90;;;;;;5053488;28;20032;-77
2023/12/27 07:00:59;;;;;;;24.67;16.13;;;8.00;99.90;;;;;;5053190;28;20021;-76
2023/12/27 07:03:25;;;;;;;22.15;16.65;;;8.00;99.90;;;;;;5052872;28;20040;-77
2023/12/27 07:05:51;;;;;;;23.90;16.85;;;8.00;99.90;;;;;;5052028;28;20534;-76
2023/12/27 07:08:17;;;;;;;24.67;16.45;;;8.00;99.90;;;;;;5051274;28;20140;-77
2023/12/27 07:10:43;;;;;;;24.92;16.48;;;8.10;99.90;;;;;;5048927;28;20060;-77
2023/12/27 07:13:08;;;;;;;20.63;15.90;;;8.10;99.90;;;;;;5051128;28;20068;-77
2023/12/27 07:15:35;;;;;;;23.20;16.70;;;8.10;99.90;;;;;;5053001;28;20057;-77
2023/12/27 07:18:00;;;;;;;26.88;16.70;;;8.10;99.90;;;;;;5052479;28;20025;-77
2023/12/27 07:20:26;;;;;;;28.13;17.52;;;8.10;99.90;;;;;;5053383;28;20025;-77
2023/12/27 07:22:52;;;;;;;24.90;17.70;;;8.10;99.90;;;;;;5058481;28;20036;-77
2023/12/27 07:25:17;;;;;;;21.02;16.83;;;8.10;99.90;;;;;;5053331;28;20032;-77
2023/12/27 07:27:43;;;;;;;21.60;17.15;;;8.10;99.90;;;;;;5052840;28;20110;-77
2023/12/27 07:30:09;;;;;;;22.35;16.88;;;8.10;99.90;;;;;;5049496;28;20549;-77
2023/12/27 07:32:35;;;;;;;24.25;16.98;;;8.10;99.90;;;;;;5052875;28;20025;-77
2023/12/27 07:35:00;;;;;;;19.52;16.50;;;8.10;99.90;;;;;;5051791;28;20024;-77
2023/12/27 07:37:26;;;;;;;22.90;17.23;;;8.10;99.90;;;;;;5052712;28;20086;-77
2023/12/27 07:39:53;;;;;;;25.00;17.13;;;8.10;99.90;;;;;;5050967;28;20436;-77
2023/12/27 07:42:19;;;;;;;25.58;18.63;;;8.20;99.90;;;;;;5048537;28;20434;-77
2023/12/27 07:44:45;;;;;;;29.70;17.83;;;8.20;99.90;;;;;;5052880;28;20029;-77
2023/12/27 07:47:11;;;;;;;27.17;18.15;;;8.20;99.90;;;;;;5052099;28;21410;-76
2023/12/27 07:49:36;;;;;;;25.13;17.35;;;8.20;99.90;;;;;;5052626;28;20032;-77
2023/12/27 07:52:04;;;;;;;24.48;18.23;;;8.20;99.90;;;;;;5049497;28;20057;-77
2023/12/27 07:54:31;;;;;;;25.23;17.20;;;8.30;99.90;;;;;;5062955;28;20092;-76
2023/12/27 07:56:57;;;;;;;27.20;17.65;;;8.30;99.90;;;;;;5054834;28;20471;-77
2023/12/27 07:59:23;;;;;;;24.35;17.90;;;8.30;99.90;;;;;;5057516;28;20127;-77
2023/12/27 08:01:48;;;;;;;24.80;18.10;;;8.30;99.90;;;;;;5049125;28;20395;-77
2023/12/27 08:04:14;;;;;;;23.08;17.40;;;8.30;99.90;;;;;;5052140;28;20033;-77
2023/12/27 08:06:40;;;;;;;27.17;18.65;;;8.40;99.90;;;;;;5053296;28;20132;-77
2023/12/27 08:09:05;;;;;;;23.83;17.63;;;8.40;99.90;;;;;;5049597;28;20029;-77
2023/12/27 08:11:31;;;;;;;26.48;19.60;;;8.40;99.90;;;;;;5042622;28;20110;-76
2023/12/27 08:13:57;;;;;;;27.30;18.65;;;8.40;99.90;;;;;;5049201;28;20430;-77
2023/12/27 08:16:24;;;;;;;28.60;19.58;;;8.40;99.90;;;;;;5050632;28;20029;-77
2023/12/27 08:18:50;;;;;;;26.33;17.77;;;8.40;99.90;;;;;;5045926;28;20025;-77
2023/12/27 08:21:16;;;;;;;29.05;19.92;;;8.50;99.90;;;;;;5050639;28;20430;-76
2023/12/27 08:23:41;;;;;;;28.02;19.70;;;8.50;99.90;;;;;;5047393;28;20123;-77
2023/12/27 08:26:07;;;;;;;27.90;19.70;;;8.50;99.90;;;;;;5050845;28;20037;-77
2023/12/27 08:28:34;;;;;;;30.38;18.25;;;8.60;99.90;;;;;;5050260;28;20071;-76
2023/12/27 08:31:00;;;;;;;23.33;16.77;;;8.60;99.90;;;;;;5050903;28;20474;-77
2023/12/27 08:33:25;;;;;;;25.42;17.73;;;8.60;99.90;;;;;;5051224;28;20040;-77
2023/12/27 08:35:51;;;;;;;34.40;19.25;;;8.60;99.90;;;;;;5058010;28;20021;-77
2023/12/27 08:38:17;;;;;;;24.77;17.90;;;8.60;99.90;;;;;;5049733;28;20032;-77
2023/12/27 08:40:42;;;;;;;32.70;18.40;;;8.70;99.90;;;;;;5047399;28;20414;-77
2023/12/27 08:43:08;;;;;;;31.35;19.80;;;8.70;99.90;;;;;;5050462;28;20475;-77
2023/12/27 08:45:34;;;;;;;32.78;17.67;;;8.70;99.90;;;;;;5050956;28;20089;-77
2023/12/27 08:48:00;;;;;;;24.60;17.52;;;8.80;99.90;;;;;;5052366;28;20445;-77
2023/12/27 08:50:26;;;;;;;20.15;15.77;;;8.80;99.90;;;;;;5050717;28;20025;-77
2023/12/27 08:52:51;;;;;;;19.77;16.30;;;8.80;99.90;;;;;;5050849;28;20036;-77
2023/12/27 08:55:17;;;;;;;24.08;17.58;;;8.80;99.90;;;;;;5050778;28;20061;-76
2023/12/27 08:57:43;;;;;;;22.10;17.23;;;8.90;99.90;;;;;;5049131;28;20538;-76
2023/12/27 09:00:10;;;;;;;26.98;16.20;;;8.90;99.90;;;;;;5047830;28;20025;-75
2023/12/27 09:02:39;;;;;;;24.63;16.50;;;8.90;99.90;;;;;;5044489;28;20321;-75
2023/12/27 09:05:06;;;;;;;23.73;16.98;;;9.00;99.90;;;;;;5047075;28;20033;-76
2023/12/27 09:07:31;;;;;;;25.05;17.75;;;9.00;99.90;;;;;;5046730;28;20028;-76
2023/12/27 09:09:58;;;;;;;27.25;18.67;;;9.00;99.90;;;;;;5042804;28;20025;-76
2023/12/27 09:12:24;;;;;;;25.00;18.98;;;9.10;99.90;;;;;;5044835;28;20029;-76
2023/12/27 09:14:49;;;;;;;41.05;22.23;;;9.10;99.90;;;;;;5046833;28;20552;-76
2023/12/27 09:17:15;;;;;;;37.22;26.95;;;9.10;99.90;;;;;;5041785;28;20071;-76
2023/12/27 09:19:42;;;;;;;51.95;30.17;;;9.20;99.90;;;;;;5042653;28;20437;-76
2023/12/27 09:22:08;;;;;;;45.15;31.63;;;9.20;99.90;;;;;;5042920;28;20419;-76
2023/12/27 09:24:34;;;;;;;45.33;33.90;;;9.20;99.90;;;;;;5047559;28;20079;-76
2023/12/27 09:27:00;;;;;;;50.67;34.38;;;9.30;99.90;;;;;;5047124;28;20074;-76
2023/12/27 09:29:25;;;;;;;60.55;35.13;;;9.30;99.90;;;;;;5046531;28;20021;-76
2023/12/27 09:31:51;;;;;;;54.58;36.58;;;9.30;99.90;;;;;;5041196;28;20033;-76
2023/12/27 09:34:17;;;;;;;50.38;37.20;;;9.30;99.90;;;;;;5049453;28;20021;-76
2023/12/27 09:36:43;;;;;;;49.30;34.60;;;9.40;99.90;;;;;;5045929;28;20051;-76
2023/12/27 09:39:11;;;;;;;44.45;34.70;;;9.40;99.90;;;;;;5045547;28;20021;-76
2023/12/27 09:41:37;;;;;;;52.03;32.78;;;9.40;99.90;;;;;;5043583;28;20025;-76
2023/12/27 09:44:06;;;;;;;55.22;35.20;;;9.40;99.90;;;;;;5042769;28;20432;-76
2023/12/27 09:46:33;;;;;;;56.95;40.22;;;9.50;99.90;;;;;;5040491;28;20124;-76
2023/12/27 09:48:59;;;;;;;61.92;42.65;;;9.50;99.90;;;;;;5038091;28;20025;-76
2023/12/27 09:51:26;;;;;;;71.95;46.58;;;9.50;99.90;;;;;;5043864;28;20025;-76
2023/12/27 09:53:52;;;;;;;62.97;45.13;;;9.60;99.90;;;;;;5045507;28;20040;-76
2023/12/27 09:56:22;;;;;;;62.45;44.35;;;9.60;99.90;;;;;;5046155;28;20487;-76
2023/12/27 09:58:57;;;;;;;68.82;43.90;;;9.70;99.90;;;;;;5044441;28;20021;-76
2023/12/27 10:01:26;;;;;;;61.47;40.85;;;9.70;99.90;;;;;;5045902;28;20475;-76
2023/12/27 10:04:37;;;;;;;44.05;33.05;;;9.80;99.90;;;;;;5044305;28;20032;-76
2023/12/27 10:07:04;;;;;;;44.35;32.03;;;9.90;99.90;;;;;;5041033;28;20097;-77
2023/12/27 10:09:30;;;;;;;53.97;36.83;;;9.90;99.90;;;;;;5040735;28;20302;-77
2023/12/27 10:11:56;;;;;;;55.53;40.28;;;10.00;99.90;;;;;;5040919;28;20033;-77
2023/12/27 10:14:24;;;;;;;60.33;42.00;;;10.00;99.90;;;;;;5051024;28;20021;-76
2023/12/27 10:16:50;;;;;;;64.70;44.55;;;10.10;99.90;;;;;;5050541;28;20029;-77
2023/12/27 10:19:39;;;;;;;65.25;46.42;;;10.20;99.90;;;;;;5050446;28;20151;-76
2023/12/27 10:22:05;;;;;;;64.97;47.65;;;10.20;99.90;;;;;;5037403;28;20017;-77
2023/12/27 10:24:31;;;;;;;76.32;49.67;;;10.30;99.90;;;;;;5050264;28;20075;-77
2023/12/27 10:26:59;;;;;;;81.72;51.80;;;10.30;99.90;;;;;;5050752;28;20021;-76
2023/12/27 10:29:25;;;;;;;76.32;53.38;;;10.30;99.90;;;;;;5050114;28;20025;-76
2023/12/27 10:31:50;;;;;;;75.70;51.40;;;10.30;99.90;;;;;;5048327;28;20013;-76
2023/12/27 10:34:18;;;;;;;75.93;53.40;;;10.30;99.90;;;;;;5050621;28;20013;-77
2023/12/27 10:36:43;;;;;;;81.13;53.97;;;10.30;99.90;;;;;;5049441;28;20032;-76
2023/12/27 10:39:09;;;;;;;95.80;62.92;;;10.30;99.90;;;;;;5049338;28;20018;-76
2023/12/27 10:41:37;;;;;;;93.20;69.40;;;10.30;99.90;;;;;;5044489;28;20486;-76
2023/12/27 10:44:07;;;;;;;88.85;63.15;;;10.30;99.90;;;;;;5049213;28;20040;-77
2023/12/27 10:46:34;;;;;;;81.20;59.60;;;10.30;99.90;;;;;;5049633;28;20059;-76
2023/12/27 10:49:03;;;;;;;77.00;56.50;;;10.30;99.90;;;;;;5050129;28;20475;-77
2023/12/27 10:51:29;;;;;;;77.70;57.88;;;10.20;99.90;;;;;;5037883;28;20116;-77
2023/12/27 10:53:59;;;;;;;76.82;55.38;;;10.20;99.90;;;;;;5049453;28;20036;-77
2023/12/27 10:56:26;;;;;;;84.50;59.70;;;10.20;99.90;;;;;;5037271;28;20112;-77
2023/12/27 10:58:52;;;;;;;80.97;59.78;;;10.20;99.90;;;;;;5047783;28;20031;-76
2023/12/27 11:01:23;;;;;;;80.88;60.60;;;10.20;99.90;;;;;;5049535;28;20021;-76
2023/12/27 11:03:50;;;;;;;77.47;53.92;;;10.20;99.90;;;;;;5045145;28;20108;-76
2023/12/27 11:06:19;;;;;;;79.82;53.92;;;10.20;99.90;;;;;;5048198;28;20021;-77
2023/12/27 11:08:46;;;;;;;80.25;56.78;;;10.20;99.90;;;;;;5049100;28;20032;-76
2023/12/27 11:11:13;;;;;;;78.05;59.08;;;10.20;99.90;;;;;;5047935;28;20055;-76
2023/12/27 11:13:40;;;;;;;91.85;68.45;;;10.20;99.90;;;;;;5048315;28;20025;-77
2023/12/27 11:16:07;;;;;;;98.15;72.78;;;10.20;99.90;;;;;;5048980;28;20021;-76
2023/12/27 11:18:35;;;;;;;91.57;66.75;;;10.30;99.90;;;;;;5048966;28;20103;-76
2023/12/27 11:21:01;;;;;;;91.50;67.03;;;10.20;99.90;;;;;;5051335;28;20025;-76
2023/12/27 11:23:27;;;;;;;88.90;64.45;;;10.20;99.90;;;;;;5049256;28;20061;-76
2023/12/27 11:25:55;;;;;;;93.60;63.80;;;10.30;99.90;;;;;;5049999;28;20032;-77
2023/12/27 11:28:21;;;;;;;85.25;63.03;;;10.30;99.90;;;;;;5040249;28;20415;-76
2023/12/27 11:30:47;;;;;;;81.10;60.38;;;10.30;99.90;;;;;;5047585;28;20570;-76
2023/12/27 11:33:23;;;;;;;80.82;62.33;;;10.30;99.90;;;;;;5048386;28;20589;-77
2023/12/27 11:35:51;;;;;;;88.00;64.20;;;10.30;99.90;;;;;;5047041;28;20021;-77
2023/12/27 11:38:20;;;;;;;85.28;61.03;;;10.30;99.90;;;;;;5048614;28;20060;-77
2023/12/27 11:40:47;;;;;;;77.20;56.85;;;10.30;99.90;;;;;;5051386;28;20024;-77
2023/12/27 11:43:19;;;;;;;75.72;55.95;;;10.30;99.90;;;;;;5046925;28;20543;-76
2023/12/27 11:46:02;;;;;;;79.43;59.00;;;10.30;99.90;;;;;;5063567;28;20079;-76
2023/12/27 11:48:33;;;;;;;77.40;54.13;;;10.30;99.90;;;;;;5048847;28;20090;-77
2023/12/27 11:51:00;;;;;;;78.97;57.70;;;10.30;99.90;;;;;;5047145;28;20133;-76
2023/12/27 11:53:27;;;;;;;67.18;50.13;;;10.30;99.90;;;;;;5047284;28;20037;-76
2023/12/27 11:55:54;;;;;;;57.00;45.67;;;10.40;99.90;;;;;;5058311;28;20032;-77
2023/12/27 11:58:30;;;;;;;65.10;44.92;;;10.40;99.90;;;;;;5053901;28;20690;-76
2023/12/27 12:00:56;;;;;;;76.57;51.67;;;10.40;99.90;;;;;;5057646;28;20028;-77
2023/12/27 12:03:33;;;;;;;71.60;51.22;;;10.40;99.90;;;;;;5070307;28;20086;-76
2023/12/27 12:06:10;;;;;;;65.22;46.83;;;10.50;99.90;;;;;;5064408;28;20536;-77
2023/12/27 12:08:48;;;;;;;64.93;47.00;;;10.50;99.90;;;;;;5030095;28;20037;-77
2023/12/27 12:11:15;;;;;;;67.15;46.97;;;10.60;99.90;;;;;;5031365;28;20033;-76
2023/12/27 12:13:41;;;;;;;66.13;43.80;;;10.60;99.90;;;;;;5038349;28;20014;-76
2023/12/27 12:16:08;;;;;;;57.33;42.33;;;10.70;99.90;;;;;;5049830;28;20021;-77
2023/12/27 12:18:34;;;;;;;52.80;37.50;;;10.70;99.90;;;;;;5052614;28;20440;-77
2023/12/27 12:21:01;;;;;;;58.15;40.92;;;10.70;99.90;;;;;;5048209;28;20347;-77
2023/12/27 12:23:31;;;;;;;59.35;44.28;;;10.70;99.90;;;;;;5051474;28;20414;-76
2023/12/27 12:26:00;;;;;;;62.40;44.58;;;10.80;99.90;;;;;;5048423;28;20504;-76
2023/12/27 12:28:27;;;;;;;63.58;46.75;;;10.80;99.90;;;;;;5047821;28;20025;-77
2023/12/27 12:30:58;;;;;;;68.55;49.35;;;10.80;99.90;;;;;;5045856;28;20590;-76
2023/12/27 12:33:24;;;;;;;74.13;47.75;;;10.80;99.90;;;;;;5049956;28;20103;-77